sensor_id;sensor_type;location;lat;lon;timestamp;P1;durP1;ratioP1;P2;durP2;ratioP2
79664;SDS011;69132;44.014;20.918;2023-09-07T00:00:53;10.27;;;7.93;;
79664;SDS011;69132;44.014;20.918;2023-09-07T00:03:20;12.13;;;9.23;;
79664;SDS011;69132;44.014;20.918;2023-09-07T00:08:17;11.98;;;8.38;;
79664;SDS011;69132;44.014;20.918;2023-09-07T00:10:43;10.45;;;8.82;;
79664;SDS011;69132;44.014;20.918;2023-09-07T00:13:09;12.40;;;7.60;;
79664;SDS011;69132;44.014;20.918;2023-09-07T00:15:36;14.68;;;8.80;;
79664;SDS011;69132;44.014;20.918;2023-09-07T00:18:03;9.30;;;6.88;;
79664;SDS011;69132;44.014;20.918;2023-09-07T00:20:30;15.65;;;7.72;;
79664;SDS011;69132;44.014;20.918;2023-09-07T00:22:56;10.48;;;8.50;;
79664;SDS011;69132;44.014;20.918;2023-09-07T00:25:22;8.60;;;7.75;;
79664;SDS011;69132;44.014;20.918;2023-09-07T00:27:49;10.85;;;6.97;;
79664;SDS011;69132;44.014;20.918;2023-09-07T00:30:15;9.88;;;8.15;;
79664;SDS011;69132;44.014;20.918;2023-09-07T00:32:41;9.55;;;7.88;;
79664;SDS011;69132;44.014;20.918;2023-09-07T00:35:08;10.75;;;8.38;;
79664;SDS011;69132;44.014;20.918;2023-09-07T00:37:35;9.13;;;7.70;;
79664;SDS011;69132;44.014;20.918;2023-09-07T00:40:01;12.90;;;9.52;;
79664;SDS011;69132;44.014;20.918;2023-09-07T00:42:28;9.32;;;8.10;;
79664;SDS011;69132;44.014;20.918;2023-09-07T00:44:54;9.35;;;7.18;;
79664;SDS011;69132;44.014;20.918;2023-09-07T00:47:21;11.00;;;9.52;;
79664;SDS011;69132;44.014;20.918;2023-09-07T00:49:49;11.82;;;7.35;;
79664;SDS011;69132;44.014;20.918;2023-09-07T00:52:15;9.17;;;6.93;;
79664;SDS011;69132;44.014;20.918;2023-09-07T00:54:42;12.57;;;8.05;;
79664;SDS011;69132;44.014;20.918;2023-09-07T00:57:09;11.15;;;9.98;;
79664;SDS011;69132;44.014;20.918;2023-09-07T00:59:51;11.63;;;9.70;;
79664;SDS011;69132;44.014;20.918;2023-09-07T01:02:17;11.00;;;8.43;;
79664;SDS011;69132;44.014;20.918;2023-09-07T01:04:43;12.50;;;8.65;;
79664;SDS011;69132;44.014;20.918;2023-09-07T01:07:22;9.93;;;7.68;;
79664;SDS011;69132;44.014;20.918;2023-09-07T01:09:52;10.82;;;8.30;;
79664;SDS011;69132;44.014;20.918;2023-09-07T01:12:18;9.88;;;7.93;;
79664;SDS011;69132;44.014;20.918;2023-09-07T01:14:45;10.02;;;7.78;;
79664;SDS011;69132;44.014;20.918;2023-09-07T01:17:12;10.43;;;6.75;;
79664;SDS011;69132;44.014;20.918;2023-09-07T01:19:39;9.07;;;7.55;;
79664;SDS011;69132;44.014;20.918;2023-09-07T01:22:08;9.68;;;7.70;;
79664;SDS011;69132;44.014;20.918;2023-09-07T01:24:35;9.77;;;7.63;;
79664;SDS011;69132;44.014;20.918;2023-09-07T01:27:03;9.82;;;7.35;;
79664;SDS011;69132;44.014;20.918;2023-09-07T01:29:29;12.93;;;7.22;;
79664;SDS011;69132;44.014;20.918;2023-09-07T01:31:56;8.30;;;6.55;;
79664;SDS011;69132;44.014;20.918;2023-09-07T01:34:23;9.02;;;7.03;;
79664;SDS011;69132;44.014;20.918;2023-09-07T01:36:49;13.55;;;9.27;;
79664;SDS011;69132;44.014;20.918;2023-09-07T01:39:16;10.90;;;7.93;;
79664;SDS011;69132;44.014;20.918;2023-09-07T01:41:42;9.65;;;7.47;;
79664;SDS011;69132;44.014;20.918;2023-09-07T01:44:08;10.18;;;7.50;;
79664;SDS011;69132;44.014;20.918;2023-09-07T01:46:34;13.38;;;9.93;;
79664;SDS011;69132;44.014;20.918;2023-09-07T01:49:03;10.82;;;9.27;;
79664;SDS011;69132;44.014;20.918;2023-09-07T01:51:30;9.32;;;7.75;;
79664;SDS011;69132;44.014;20.918;2023-09-07T01:53:56;10.32;;;7.82;;
79664;SDS011;69132;44.014;20.918;2023-09-07T01:56:22;12.10;;;8.07;;
79664;SDS011;69132;44.014;20.918;2023-09-07T01:58:48;10.85;;;7.90;;
79664;SDS011;69132;44.014;20.918;2023-09-07T02:01:21;8.57;;;7.65;;
79664;SDS011;69132;44.014;20.918;2023-09-07T02:03:47;9.60;;;8.20;;
79664;SDS011;69132;44.014;20.918;2023-09-07T02:06:17;11.52;;;7.97;;
79664;SDS011;69132;44.014;20.918;2023-09-07T02:08:43;12.07;;;9.98;;
79664;SDS011;69132;44.014;20.918;2023-09-07T02:11:09;9.30;;;7.13;;
79664;SDS011;69132;44.014;20.918;2023-09-07T02:13:35;10.40;;;7.32;;
79664;SDS011;69132;44.014;20.918;2023-09-07T02:16:04;10.25;;;7.03;;
79664;SDS011;69132;44.014;20.918;2023-09-07T02:18:33;9.43;;;7.38;;
79664;SDS011;69132;44.014;20.918;2023-09-07T02:21:02;9.35;;;6.68;;
79664;SDS011;69132;44.014;20.918;2023-09-07T02:25:56;7.30;;;6.45;;
79664;SDS011;69132;44.014;20.918;2023-09-07T02:28:23;9.02;;;6.20;;
79664;SDS011;69132;44.014;20.918;2023-09-07T02:30:49;8.70;;;6.68;;
79664;SDS011;69132;44.014;20.918;2023-09-07T02:33:15;10.73;;;8.50;;
79664;SDS011;69132;44.014;20.918;2023-09-07T02:35:42;11.48;;;7.03;;
79664;SDS011;69132;44.014;20.918;2023-09-07T02:38:08;8.85;;;6.82;;
79664;SDS011;69132;44.014;20.918;2023-09-07T02:40:41;10.02;;;7.30;;
79664;SDS011;69132;44.014;20.918;2023-09-07T02:43:11;8.73;;;7.18;;
79664;SDS011;69132;44.014;20.918;2023-09-07T02:45:37;10.50;;;7.40;;
79664;SDS011;69132;44.014;20.918;2023-09-07T02:48:04;10.20;;;7.05;;
79664;SDS011;69132;44.014;20.918;2023-09-07T02:50:32;11.25;;;8.98;;
79664;SDS011;69132;44.014;20.918;2023-09-07T02:52:58;8.95;;;7.18;;
79664;SDS011;69132;44.014;20.918;2023-09-07T02:55:26;10.70;;;6.57;;
79664;SDS011;69132;44.014;20.918;2023-09-07T02:57:56;7.80;;;6.97;;
79664;SDS011;69132;44.014;20.918;2023-09-07T03:00:23;11.35;;;7.45;;
79664;SDS011;69132;44.014;20.918;2023-09-07T03:02:49;9.15;;;7.47;;
79664;SDS011;69132;44.014;20.918;2023-09-07T03:05:15;10.32;;;7.13;;
79664;SDS011;69132;44.014;20.918;2023-09-07T03:07:41;11.93;;;7.47;;
79664;SDS011;69132;44.014;20.918;2023-09-07T03:10:08;10.68;;;7.50;;
79664;SDS011;69132;44.014;20.918;2023-09-07T03:12:34;8.93;;;7.68;;
79664;SDS011;69132;44.014;20.918;2023-09-07T03:15:00;8.48;;;6.70;;
79664;SDS011;69132;44.014;20.918;2023-09-07T03:17:29;8.38;;;7.00;;
79664;SDS011;69132;44.014;20.918;2023-09-07T03:19:55;11.15;;;7.43;;
79664;SDS011;69132;44.014;20.918;2023-09-07T03:22:24;11.25;;;7.03;;
79664;SDS011;69132;44.014;20.918;2023-09-07T03:24:51;8.65;;;6.88;;
79664;SDS011;69132;44.014;20.918;2023-09-07T03:27:17;9.40;;;7.10;;
79664;SDS011;69132;44.014;20.918;2023-09-07T03:29:49;15.57;;;11.88;;
79664;SDS011;69132;44.014;20.918;2023-09-07T03:32:16;13.93;;;10.80;;
79664;SDS011;69132;44.014;20.918;2023-09-07T03:37:13;14.63;;;9.48;;
79664;SDS011;69132;44.014;20.918;2023-09-07T03:39:39;18.13;;;9.55;;
79664;SDS011;69132;44.014;20.918;2023-09-07T03:42:05;12.15;;;9.75;;
79664;SDS011;69132;44.014;20.918;2023-09-07T03:47:06;13.13;;;9.18;;
79664;SDS011;69132;44.014;20.918;2023-09-07T03:49:36;13.70;;;8.70;;
79664;SDS011;69132;44.014;20.918;2023-09-07T03:52:03;9.57;;;7.00;;
79664;SDS011;69132;44.014;20.918;2023-09-07T03:54:30;10.25;;;7.13;;
79664;SDS011;69132;44.014;20.918;2023-09-07T03:56:58;10.30;;;8.00;;
79664;SDS011;69132;44.014;20.918;2023-09-07T03:59:24;8.77;;;7.20;;
79664;SDS011;69132;44.014;20.918;2023-09-07T04:01:50;10.80;;;6.53;;
79664;SDS011;69132;44.014;20.918;2023-09-07T04:04:16;11.10;;;7.80;;
79664;SDS011;69132;44.014;20.918;2023-09-07T04:06:42;10.80;;;8.30;;
79664;SDS011;69132;44.014;20.918;2023-09-07T04:09:12;13.18;;;9.57;;
79664;SDS011;69132;44.014;20.918;2023-09-07T04:11:39;14.73;;;7.85;;
79664;SDS011;69132;44.014;20.918;2023-09-07T04:14:05;13.25;;;8.00;;
79664;SDS011;69132;44.014;20.918;2023-09-07T04:16:32;14.77;;;8.73;;
79664;SDS011;69132;44.014;20.918;2023-09-07T04:19:01;10.73;;;7.85;;
79664;SDS011;69132;44.014;20.918;2023-09-07T04:21:27;11.70;;;8.32;;
79664;SDS011;69132;44.014;20.918;2023-09-07T04:23:53;13.65;;;8.68;;
79664;SDS011;69132;44.014;20.918;2023-09-07T04:26:19;11.18;;;8.38;;
79664;SDS011;69132;44.014;20.918;2023-09-07T04:28:45;43.75;;;22.50;;
79664;SDS011;69132;44.014;20.918;2023-09-07T04:31:11;53.90;;;30.08;;
79664;SDS011;69132;44.014;20.918;2023-09-07T04:33:37;15.02;;;10.95;;
79664;SDS011;69132;44.014;20.918;2023-09-07T04:36:08;12.60;;;8.73;;
79664;SDS011;69132;44.014;20.918;2023-09-07T04:38:34;11.60;;;8.75;;
79664;SDS011;69132;44.014;20.918;2023-09-07T04:41:10;11.65;;;8.40;;
79664;SDS011;69132;44.014;20.918;2023-09-07T04:43:37;11.73;;;8.45;;
79664;SDS011;69132;44.014;20.918;2023-09-07T04:46:05;10.50;;;7.85;;
79664;SDS011;69132;44.014;20.918;2023-09-07T04:48:32;11.07;;;7.43;;
79664;SDS011;69132;44.014;20.918;2023-09-07T04:51:00;12.77;;;8.68;;
79664;SDS011;69132;44.014;20.918;2023-09-07T04:53:28;10.00;;;7.57;;
79664;SDS011;69132;44.014;20.918;2023-09-07T04:56:00;17.48;;;9.73;;
79664;SDS011;69132;44.014;20.918;2023-09-07T04:58:26;14.25;;;8.32;;
79664;SDS011;69132;44.014;20.918;2023-09-07T05:00:52;15.13;;;9.63;;
79664;SDS011;69132;44.014;20.918;2023-09-07T05:03:18;11.18;;;7.97;;
79664;SDS011;69132;44.014;20.918;2023-09-07T05:05:51;24.50;;;8.18;;
79664;SDS011;69132;44.014;20.918;2023-09-07T05:08:21;9.40;;;7.63;;
79664;SDS011;69132;44.014;20.918;2023-09-07T05:10:47;12.85;;;8.55;;
79664;SDS011;69132;44.014;20.918;2023-09-07T05:13:14;16.02;;;11.07;;
79664;SDS011;69132;44.014;20.918;2023-09-07T05:15:50;15.00;;;10.63;;
79664;SDS011;69132;44.014;20.918;2023-09-07T05:18:18;19.08;;;10.07;;
79664;SDS011;69132;44.014;20.918;2023-09-07T05:20:44;13.25;;;8.30;;
79664;SDS011;69132;44.014;20.918;2023-09-07T05:23:14;16.45;;;7.90;;
79664;SDS011;69132;44.014;20.918;2023-09-07T05:25:53;13.50;;;10.10;;
79664;SDS011;69132;44.014;20.918;2023-09-07T05:28:20;14.93;;;8.95;;
79664;SDS011;69132;44.014;20.918;2023-09-07T05:33:15;15.35;;;9.48;;
79664;SDS011;69132;44.014;20.918;2023-09-07T05:35:41;12.82;;;8.55;;
79664;SDS011;69132;44.014;20.918;2023-09-07T05:38:08;13.60;;;10.25;;
79664;SDS011;69132;44.014;20.918;2023-09-07T05:40:36;13.20;;;8.57;;
79664;SDS011;69132;44.014;20.918;2023-09-07T05:43:02;10.63;;;8.10;;
79664;SDS011;69132;44.014;20.918;2023-09-07T05:45:30;11.25;;;9.98;;
79664;SDS011;69132;44.014;20.918;2023-09-07T05:47:59;16.45;;;8.85;;
79664;SDS011;69132;44.014;20.918;2023-09-07T05:50:25;12.43;;;8.32;;
79664;SDS011;69132;44.014;20.918;2023-09-07T05:52:51;12.18;;;10.00;;
79664;SDS011;69132;44.014;20.918;2023-09-07T05:55:17;15.90;;;9.63;;
79664;SDS011;69132;44.014;20.918;2023-09-07T05:57:44;14.57;;;9.32;;
79664;SDS011;69132;44.014;20.918;2023-09-07T06:00:12;13.68;;;8.40;;
79664;SDS011;69132;44.014;20.918;2023-09-07T06:02:40;18.55;;;12.90;;
79664;SDS011;69132;44.014;20.918;2023-09-07T06:05:06;24.05;;;12.07;;
79664;SDS011;69132;44.014;20.918;2023-09-07T06:07:33;21.70;;;12.80;;
79664;SDS011;69132;44.014;20.918;2023-09-07T06:10:00;37.08;;;23.48;;
79664;SDS011;69132;44.014;20.918;2023-09-07T06:12:27;24.10;;;17.25;;
79664;SDS011;69132;44.014;20.918;2023-09-07T06:14:54;24.17;;;15.82;;
79664;SDS011;69132;44.014;20.918;2023-09-07T06:17:20;20.30;;;12.60;;
79664;SDS011;69132;44.014;20.918;2023-09-07T06:19:48;15.85;;;9.60;;
79664;SDS011;69132;44.014;20.918;2023-09-07T06:22:15;10.10;;;8.00;;
79664;SDS011;69132;44.014;20.918;2023-09-07T06:24:42;16.30;;;9.57;;
79664;SDS011;69132;44.014;20.918;2023-09-07T06:27:08;13.88;;;9.57;;
79664;SDS011;69132;44.014;20.918;2023-09-07T06:29:35;11.75;;;8.95;;
79664;SDS011;69132;44.014;20.918;2023-09-07T06:32:01;11.30;;;9.25;;
79664;SDS011;69132;44.014;20.918;2023-09-07T06:34:27;12.13;;;8.77;;
79664;SDS011;69132;44.014;20.918;2023-09-07T06:36:53;13.20;;;9.27;;
79664;SDS011;69132;44.014;20.918;2023-09-07T06:39:21;13.90;;;7.78;;
79664;SDS011;69132;44.014;20.918;2023-09-07T06:44:16;13.90;;;9.05;;
79664;SDS011;69132;44.014;20.918;2023-09-07T06:46:43;11.45;;;8.38;;
79664;SDS011;69132;44.014;20.918;2023-09-07T06:49:20;10.00;;;7.55;;
79664;SDS011;69132;44.014;20.918;2023-09-07T06:51:46;11.10;;;8.30;;
79664;SDS011;69132;44.014;20.918;2023-09-07T06:54:12;13.82;;;8.68;;
79664;SDS011;69132;44.014;20.918;2023-09-07T06:56:38;11.00;;;8.23;;
79664;SDS011;69132;44.014;20.918;2023-09-07T06:59:04;12.43;;;7.90;;
79664;SDS011;69132;44.014;20.918;2023-09-07T07:01:30;11.38;;;7.78;;
79664;SDS011;69132;44.014;20.918;2023-09-07T07:03:57;9.93;;;7.80;;
79664;SDS011;69132;44.014;20.918;2023-09-07T07:06:23;12.38;;;7.68;;
79664;SDS011;69132;44.014;20.918;2023-09-07T07:08:49;13.20;;;8.02;;
79664;SDS011;69132;44.014;20.918;2023-09-07T07:11:16;16.73;;;8.73;;
79664;SDS011;69132;44.014;20.918;2023-09-07T07:13:42;10.90;;;7.82;;
79664;SDS011;69132;44.014;20.918;2023-09-07T07:16:08;12.32;;;7.90;;
79664;SDS011;69132;44.014;20.918;2023-09-07T07:18:35;11.48;;;7.80;;
79664;SDS011;69132;44.014;20.918;2023-09-07T07:21:02;10.15;;;7.70;;
79664;SDS011;69132;44.014;20.918;2023-09-07T07:23:28;12.05;;;7.50;;
79664;SDS011;69132;44.014;20.918;2023-09-07T07:25:54;12.05;;;7.38;;
79664;SDS011;69132;44.014;20.918;2023-09-07T07:28:20;9.95;;;7.15;;
79664;SDS011;69132;44.014;20.918;2023-09-07T07:30:47;12.50;;;7.05;;
79664;SDS011;69132;44.014;20.918;2023-09-07T07:33:17;9.75;;;6.70;;
79664;SDS011;69132;44.014;20.918;2023-09-07T07:35:44;10.35;;;7.60;;
79664;SDS011;69132;44.014;20.918;2023-09-07T07:38:11;13.55;;;6.75;;
79664;SDS011;69132;44.014;20.918;2023-09-07T07:40:39;8.63;;;6.38;;
79664;SDS011;69132;44.014;20.918;2023-09-07T07:43:06;7.85;;;6.35;;
79664;SDS011;69132;44.014;20.918;2023-09-07T07:45:34;7.07;;;5.93;;
79664;SDS011;69132;44.014;20.918;2023-09-07T07:48:03;10.50;;;6.47;;
79664;SDS011;69132;44.014;20.918;2023-09-07T07:50:36;19.50;;;8.80;;
79664;SDS011;69132;44.014;20.918;2023-09-07T07:53:03;11.55;;;6.20;;
79664;SDS011;69132;44.014;20.918;2023-09-07T07:55:30;10.60;;;5.88;;
79664;SDS011;69132;44.014;20.918;2023-09-07T07:57:56;9.07;;;6.03;;
79664;SDS011;69132;44.014;20.918;2023-09-07T08:00:30;9.65;;;5.50;;
79664;SDS011;69132;44.014;20.918;2023-09-07T08:02:56;8.25;;;6.22;;
79664;SDS011;69132;44.014;20.918;2023-09-07T08:08:15;11.18;;;6.30;;
79664;SDS011;69132;44.014;20.918;2023-09-07T08:10:41;11.80;;;6.57;;
79664;SDS011;69132;44.014;20.918;2023-09-07T08:15:36;7.60;;;5.65;;
79664;SDS011;69132;44.014;20.918;2023-09-07T08:18:05;13.80;;;6.43;;
79664;SDS011;69132;44.014;20.918;2023-09-07T08:20:34;7.68;;;5.80;;
79664;SDS011;69132;44.014;20.918;2023-09-07T08:23:02;10.05;;;5.38;;
79664;SDS011;69132;44.014;20.918;2023-09-07T08:25:32;9.13;;;5.55;;
79664;SDS011;69132;44.014;20.918;2023-09-07T08:27:58;7.38;;;5.22;;
79664;SDS011;69132;44.014;20.918;2023-09-07T08:30:26;10.13;;;5.78;;
79664;SDS011;69132;44.014;20.918;2023-09-07T08:32:54;15.40;;;6.18;;
79664;SDS011;69132;44.014;20.918;2023-09-07T08:35:20;10.07;;;5.55;;
79664;SDS011;69132;44.014;20.918;2023-09-07T08:37:52;8.23;;;6.85;;
79664;SDS011;69132;44.014;20.918;2023-09-07T08:40:18;7.57;;;5.15;;
79664;SDS011;69132;44.014;20.918;2023-09-07T08:42:46;9.77;;;5.68;;
79664;SDS011;69132;44.014;20.918;2023-09-07T08:45:13;10.45;;;5.82;;
79664;SDS011;69132;44.014;20.918;2023-09-07T08:47:40;8.15;;;5.00;;
79664;SDS011;69132;44.014;20.918;2023-09-07T08:50:07;6.97;;;6.28;;
79664;SDS011;69132;44.014;20.918;2023-09-07T08:52:34;6.88;;;5.15;;
79664;SDS011;69132;44.014;20.918;2023-09-07T08:55:00;7.68;;;5.03;;
79664;SDS011;69132;44.014;20.918;2023-09-07T08:57:29;9.38;;;5.40;;
79664;SDS011;69132;44.014;20.918;2023-09-07T08:59:59;7.95;;;5.13;;
79664;SDS011;69132;44.014;20.918;2023-09-07T09:02:25;10.32;;;5.50;;
79664;SDS011;69132;44.014;20.918;2023-09-07T09:04:51;7.50;;;5.25;;
79664;SDS011;69132;44.014;20.918;2023-09-07T09:07:19;9.55;;;5.70;;
79664;SDS011;69132;44.014;20.918;2023-09-07T09:09:46;11.15;;;5.50;;
79664;SDS011;69132;44.014;20.918;2023-09-07T09:12:12;8.57;;;4.88;;
79664;SDS011;69132;44.014;20.918;2023-09-07T09:14:44;10.30;;;5.93;;
79664;SDS011;69132;44.014;20.918;2023-09-07T09:17:14;8.75;;;4.88;;
79664;SDS011;69132;44.014;20.918;2023-09-07T09:19:57;7.72;;;4.53;;
79664;SDS011;69132;44.014;20.918;2023-09-07T09:22:23;9.68;;;5.20;;
79664;SDS011;69132;44.014;20.918;2023-09-07T09:24:49;5.65;;;4.22;;
79664;SDS011;69132;44.014;20.918;2023-09-07T09:27:22;7.95;;;5.40;;
79664;SDS011;69132;44.014;20.918;2023-09-07T09:29:49;9.13;;;4.97;;
79664;SDS011;69132;44.014;20.918;2023-09-07T09:32:19;4.90;;;4.40;;
79664;SDS011;69132;44.014;20.918;2023-09-07T09:34:48;8.60;;;4.60;;
79664;SDS011;69132;44.014;20.918;2023-09-07T09:37:14;6.63;;;4.78;;
79664;SDS011;69132;44.014;20.918;2023-09-07T09:39:43;5.30;;;4.60;;
79664;SDS011;69132;44.014;20.918;2023-09-07T09:42:11;6.07;;;4.88;;
79664;SDS011;69132;44.014;20.918;2023-09-07T09:44:38;8.90;;;4.63;;
79664;SDS011;69132;44.014;20.918;2023-09-07T09:47:04;7.50;;;4.57;;
79664;SDS011;69132;44.014;20.918;2023-09-07T09:49:31;7.15;;;5.05;;
79664;SDS011;69132;44.014;20.918;2023-09-07T09:51:58;8.13;;;4.57;;
79664;SDS011;69132;44.014;20.918;2023-09-07T09:54:25;8.05;;;6.47;;
79664;SDS011;69132;44.014;20.918;2023-09-07T09:56:53;5.50;;;4.25;;
79664;SDS011;69132;44.014;20.918;2023-09-07T10:02:19;6.95;;;5.03;;
79664;SDS011;69132;44.014;20.918;2023-09-07T10:04:45;7.15;;;5.30;;
79664;SDS011;69132;44.014;20.918;2023-09-07T10:07:12;8.68;;;5.40;;
79664;SDS011;69132;44.014;20.918;2023-09-07T10:09:38;5.60;;;4.85;;
79664;SDS011;69132;44.014;20.918;2023-09-07T10:12:05;5.93;;;4.72;;
79664;SDS011;69132;44.014;20.918;2023-09-07T10:14:40;8.30;;;5.00;;
79664;SDS011;69132;44.014;20.918;2023-09-07T10:17:06;5.07;;;4.57;;
79664;SDS011;69132;44.014;20.918;2023-09-07T10:19:35;8.48;;;5.10;;
79664;SDS011;69132;44.014;20.918;2023-09-07T10:22:04;8.43;;;4.82;;
79664;SDS011;69132;44.014;20.918;2023-09-07T10:24:32;6.50;;;4.97;;
79664;SDS011;69132;44.014;20.918;2023-09-07T10:27:02;6.85;;;5.10;;
79664;SDS011;69132;44.014;20.918;2023-09-07T10:29:39;7.22;;;4.80;;
79664;SDS011;69132;44.014;20.918;2023-09-07T10:32:06;5.75;;;4.53;;
79664;SDS011;69132;44.014;20.918;2023-09-07T10:37:00;10.25;;;6.13;;
79664;SDS011;69132;44.014;20.918;2023-09-07T10:39:32;8.70;;;5.28;;
79664;SDS011;69132;44.014;20.918;2023-09-07T10:42:19;8.55;;;5.68;;
79664;SDS011;69132;44.014;20.918;2023-09-07T10:44:46;5.72;;;4.82;;
79664;SDS011;69132;44.014;20.918;2023-09-07T10:47:15;5.90;;;5.28;;
79664;SDS011;69132;44.014;20.918;2023-09-07T10:49:41;8.05;;;5.20;;
79664;SDS011;69132;44.014;20.918;2023-09-07T10:52:08;8.55;;;6.10;;
79664;SDS011;69132;44.014;20.918;2023-09-07T10:54:35;8.30;;;5.00;;
79664;SDS011;69132;44.014;20.918;2023-09-07T10:57:08;6.63;;;4.97;;
79664;SDS011;69132;44.014;20.918;2023-09-07T10:59:36;6.75;;;4.75;;
79664;SDS011;69132;44.014;20.918;2023-09-07T11:02:05;7.72;;;5.70;;
79664;SDS011;69132;44.014;20.918;2023-09-07T11:04:32;8.35;;;5.22;;
79664;SDS011;69132;44.014;20.918;2023-09-07T11:06:58;10.85;;;5.75;;
79664;SDS011;69132;44.014;20.918;2023-09-07T11:09:33;7.15;;;6.13;;
79664;SDS011;69132;44.014;20.918;2023-09-07T11:12:05;6.35;;;5.55;;
79664;SDS011;69132;44.014;20.918;2023-09-07T11:17:26;9.65;;;5.90;;
79664;SDS011;69132;44.014;20.918;2023-09-07T11:19:53;7.93;;;5.65;;
79664;SDS011;69132;44.014;20.918;2023-09-07T11:22:40;7.38;;;5.60;;
79664;SDS011;69132;44.014;20.918;2023-09-07T11:25:07;10.48;;;6.43;;
79664;SDS011;69132;44.014;20.918;2023-09-07T11:27:34;9.73;;;6.65;;
79664;SDS011;69132;44.014;20.918;2023-09-07T11:30:01;5.25;;;4.25;;
79664;SDS011;69132;44.014;20.918;2023-09-07T11:32:33;7.45;;;4.38;;
79664;SDS011;69132;44.014;20.918;2023-09-07T11:35:00;7.78;;;4.55;;
79664;SDS011;69132;44.014;20.918;2023-09-07T11:37:26;6.72;;;4.20;;
79664;SDS011;69132;44.014;20.918;2023-09-07T11:39:53;7.95;;;5.10;;
79664;SDS011;69132;44.014;20.918;2023-09-07T11:42:19;7.47;;;4.97;;
79664;SDS011;69132;44.014;20.918;2023-09-07T11:44:45;6.20;;;4.65;;
79664;SDS011;69132;44.014;20.918;2023-09-07T11:47:12;5.87;;;4.57;;
79664;SDS011;69132;44.014;20.918;2023-09-07T11:49:43;5.55;;;4.25;;
79664;SDS011;69132;44.014;20.918;2023-09-07T11:52:10;6.57;;;4.90;;
79664;SDS011;69132;44.014;20.918;2023-09-07T11:54:36;10.85;;;5.18;;
79664;SDS011;69132;44.014;20.918;2023-09-07T11:57:02;9.93;;;5.13;;
79664;SDS011;69132;44.014;20.918;2023-09-07T11:59:28;8.13;;;5.40;;
79664;SDS011;69132;44.014;20.918;2023-09-07T12:01:55;5.80;;;4.43;;
79664;SDS011;69132;44.014;20.918;2023-09-07T12:04:21;8.07;;;4.60;;
79664;SDS011;69132;44.014;20.918;2023-09-07T12:06:48;6.13;;;4.53;;
79664;SDS011;69132;44.014;20.918;2023-09-07T12:09:14;6.57;;;4.43;;
79664;SDS011;69132;44.014;20.918;2023-09-07T12:11:42;9.60;;;4.13;;
79664;SDS011;69132;44.014;20.918;2023-09-07T12:14:10;8.07;;;4.30;;
79664;SDS011;69132;44.014;20.918;2023-09-07T12:16:36;5.93;;;4.07;;
79664;SDS011;69132;44.014;20.918;2023-09-07T12:19:02;6.32;;;3.95;;
79664;SDS011;69132;44.014;20.918;2023-09-07T12:21:28;8.55;;;4.53;;
79664;SDS011;69132;44.014;20.918;2023-09-07T12:23:56;4.90;;;4.40;;
79664;SDS011;69132;44.014;20.918;2023-09-07T12:26:23;7.10;;;4.43;;
79664;SDS011;69132;44.014;20.918;2023-09-07T12:28:49;6.88;;;4.68;;
79664;SDS011;69132;44.014;20.918;2023-09-07T12:31:16;7.38;;;4.50;;
79664;SDS011;69132;44.014;20.918;2023-09-07T12:33:42;5.05;;;4.40;;
79664;SDS011;69132;44.014;20.918;2023-09-07T12:36:08;8.00;;;4.43;;
79664;SDS011;69132;44.014;20.918;2023-09-07T12:38:36;6.20;;;4.18;;
79664;SDS011;69132;44.014;20.918;2023-09-07T12:41:04;5.43;;;4.07;;
79664;SDS011;69132;44.014;20.918;2023-09-07T12:43:31;5.95;;;3.92;;
79664;SDS011;69132;44.014;20.918;2023-09-07T12:45:58;7.18;;;4.10;;
79664;SDS011;69132;44.014;20.918;2023-09-07T12:48:25;8.35;;;4.30;;
79664;SDS011;69132;44.014;20.918;2023-09-07T12:50:53;5.43;;;4.23;;
79664;SDS011;69132;44.014;20.918;2023-09-07T12:53:19;5.68;;;4.57;;
79664;SDS011;69132;44.014;20.918;2023-09-07T12:55:49;5.00;;;3.75;;
79664;SDS011;69132;44.014;20.918;2023-09-07T12:58:16;6.37;;;4.07;;
79664;SDS011;69132;44.014;20.918;2023-09-07T13:00:42;4.95;;;3.78;;
79664;SDS011;69132;44.014;20.918;2023-09-07T13:03:08;4.38;;;3.85;;
79664;SDS011;69132;44.014;20.918;2023-09-07T13:05:37;6.32;;;4.35;;
79664;SDS011;69132;44.014;20.918;2023-09-07T13:08:04;4.93;;;3.55;;
79664;SDS011;69132;44.014;20.918;2023-09-07T13:10:32;5.43;;;4.30;;
79664;SDS011;69132;44.014;20.918;2023-09-07T13:12:58;6.00;;;3.75;;
79664;SDS011;69132;44.014;20.918;2023-09-07T13:15:24;6.32;;;3.88;;
79664;SDS011;69132;44.014;20.918;2023-09-07T13:17:53;4.28;;;3.72;;
79664;SDS011;69132;44.014;20.918;2023-09-07T13:20:19;4.28;;;3.78;;
79664;SDS011;69132;44.014;20.918;2023-09-07T13:22:46;7.75;;;3.90;;
79664;SDS011;69132;44.014;20.918;2023-09-07T13:25:12;6.30;;;3.78;;
79664;SDS011;69132;44.014;20.918;2023-09-07T13:27:38;4.57;;;3.60;;
79664;SDS011;69132;44.014;20.918;2023-09-07T13:30:06;5.53;;;3.72;;
79664;SDS011;69132;44.014;20.918;2023-09-07T13:32:38;4.47;;;3.50;;
79664;SDS011;69132;44.014;20.918;2023-09-07T13:35:06;5.60;;;3.53;;
79664;SDS011;69132;44.014;20.918;2023-09-07T13:37:32;4.88;;;3.75;;
79664;SDS011;69132;44.014;20.918;2023-09-07T13:40:00;10.30;;;4.35;;
79664;SDS011;69132;44.014;20.918;2023-09-07T13:42:28;9.27;;;4.43;;
79664;SDS011;69132;44.014;20.918;2023-09-07T13:44:56;4.55;;;3.33;;
79664;SDS011;69132;44.014;20.918;2023-09-07T13:47:23;6.38;;;3.83;;
79664;SDS011;69132;44.014;20.918;2023-09-07T13:49:50;5.90;;;3.88;;
79664;SDS011;69132;44.014;20.918;2023-09-07T13:52:17;6.40;;;4.47;;
79664;SDS011;69132;44.014;20.918;2023-09-07T13:54:43;5.00;;;3.35;;
79664;SDS011;69132;44.014;20.918;2023-09-07T13:57:10;5.32;;;3.92;;
79664;SDS011;69132;44.014;20.918;2023-09-07T13:59:36;4.40;;;4.00;;
79664;SDS011;69132;44.014;20.918;2023-09-07T14:02:02;5.82;;;3.53;;
79664;SDS011;69132;44.014;20.918;2023-09-07T14:04:28;4.07;;;3.47;;
79664;SDS011;69132;44.014;20.918;2023-09-07T14:06:56;5.72;;;3.38;;
79664;SDS011;69132;44.014;20.918;2023-09-07T14:09:23;3.45;;;3.10;;
79664;SDS011;69132;44.014;20.918;2023-09-07T14:11:51;5.28;;;3.35;;
79664;SDS011;69132;44.014;20.918;2023-09-07T14:14:18;4.47;;;3.57;;
79664;SDS011;69132;44.014;20.918;2023-09-07T14:16:48;4.82;;;3.53;;
79664;SDS011;69132;44.014;20.918;2023-09-07T14:19:20;5.20;;;3.45;;
79664;SDS011;69132;44.014;20.918;2023-09-07T14:21:46;5.30;;;3.75;;
79664;SDS011;69132;44.014;20.918;2023-09-07T14:24:13;3.83;;;3.43;;
79664;SDS011;69132;44.014;20.918;2023-09-07T14:26:41;6.82;;;4.65;;
79664;SDS011;69132;44.014;20.918;2023-09-07T14:29:08;5.07;;;4.20;;
79664;SDS011;69132;44.014;20.918;2023-09-07T14:31:34;5.97;;;3.50;;
79664;SDS011;69132;44.014;20.918;2023-09-07T14:34:00;7.28;;;4.60;;
79664;SDS011;69132;44.014;20.918;2023-09-07T14:36:28;5.68;;;3.92;;
79664;SDS011;69132;44.014;20.918;2023-09-07T14:38:54;7.25;;;4.07;;
79664;SDS011;69132;44.014;20.918;2023-09-07T14:41:22;5.07;;;4.10;;
79664;SDS011;69132;44.014;20.918;2023-09-07T14:43:48;6.65;;;4.13;;
79664;SDS011;69132;44.014;20.918;2023-09-07T14:46:15;6.63;;;4.53;;
79664;SDS011;69132;44.014;20.918;2023-09-07T14:48:41;5.20;;;3.95;;
79664;SDS011;69132;44.014;20.918;2023-09-07T14:51:07;4.78;;;4.00;;
79664;SDS011;69132;44.014;20.918;2023-09-07T14:53:33;4.90;;;3.58;;
79664;SDS011;69132;44.014;20.918;2023-09-07T14:56:00;13.90;;;5.65;;
79664;SDS011;69132;44.014;20.918;2023-09-07T14:58:26;5.72;;;4.50;;